AZUH

Nakhchivan

Nakhchivan, Azerbaijan
METAR AZUH 201050Z 00000KT CAVOK 12/M01 Q1021
Observed Flight Rules
Nov-20 @ 10:50 UTC (52 minutes ago) Visual Flight Rules
Visibility Clouds
10,000+ meters
  • Clear skies
Temperatures Readings
Current 12°C / 54°F
Dewpoint -1°C / 30°F
Humidity 41%
Altimeter 30.15" Hg
Pressure 1021 hPa
Elevation 855
METAR AZUH 201050Z 00000KT CAVOK 12/M01 Q1021
Observed Flight Rules
Nov-20 @ 10:50 UTC
(52 minutes ago)
VFR
Clouds
  • Clear skies
Temperature Dewpoint
12°C / 54°F -1°C / 30°F
Humidity Altimeter Pressure
41% 30.15" Hg 1021 hPa